Prospector, Canada
Current Conditions -  °F | °C
As of 11:00 AM on Friday 21 Nov 2014 (Local Time) from CYQD Reporting Station
Light Snow Light Snow  
Wind Chill: 27°   Ceiling: 700
Heat Index: 27°   Visibility: 1mi
Dew Point: 25°   Wind: 3mph
Humidity: 93%   Direction: 210°SSW
Pressure: 29.36"   Gusts: NA
Location:  52.95°N, 101.27°W
Report Text: CYQD 211700Z 21003KT 1SM -SN OVC007 M03/M04 A2936 RMK SC8 SLP960
Loading
Personal Weather Stations






























Interactive Weather Map New forecast layout! Learn more

10-Day Weather Forecast

Advertisements
Track Severe Weather on mobile